Time,TemperatureF,DewpointF,PressureIn,WindDirection,WindDirectionDegrees,WindSpeedMPH,WindSpeedGustMPH,Humidity,HourlyPrecipIn,Conditions,Clouds,dailyrainin,SoftwareType,DateUTC
2013-08-30 00:01:00,79.0,63.9,29.89,South,180,0.0,0.0,60,0.00,,,0.00,VWS V14.01,2013-08-29 21:01:00,
2013-08-30 00:06:00,79.2,64.1,29.88,South,180,0.0,0.0,60,0.00,,,0.00,VWS V14.01,2013-08-29 21:06:00,
2013-08-30 00:12:00,79.2,63.6,29.88,South,180,0.0,0.0,59,0.00,,,0.00,VWS V14.01,2013-08-29 21:12:00,
2013-08-30 00:17:00,79.0,63.4,29.88,South,180,0.0,0.0,59,0.00,,,0.00,VWS V14.01,2013-08-29 21:17:00,
2013-08-30 00:22:00,79.0,63.4,29.88,South,180,0.0,0.0,59,0.00,,,0.00,VWS V14.01,2013-08-29 21:22:00,
2013-08-30 00:27:00,79.0,63.4,29.88,South,180,0.0,0.0,59,0.00,,,0.00,VWS V14.01,2013-08-29 21:27:00,
2013-08-30 00:32:00,79.0,63.4,29.88,South,180,0.0,0.0,59,0.00,,,0.00,VWS V14.01,2013-08-29 21:32:00,
2013-08-30 00:37:00,79.0,63.4,29.88,South,180,0.0,0.0,59,0.00,,,0.00,VWS V14.01,2013-08-29 21:37:00,
2013-08-30 00:42:00,79.0,63.9,29.88,South,180,0.0,0.0,60,0.00,,,0.00,VWS V14.01,2013-08-29 21:42:00,
2013-08-30 00:47:00,79.0,63.9,29.88,South,180,0.0,0.0,60,0.00,,,0.00,VWS V14.01,2013-08-29 21:47:00,
2013-08-30 00:52:00,78.8,63.7,29.88,South,180,0.0,0.0,60,0.00,,,0.00,VWS V14.01,2013-08-29 21:52:00,
2013-08-30 00:57:00,78.6,63.5,29.88,South,180,0.0,0.0,60,0.00,,,0.00,VWS V14.01,2013-08-29 21:57:00,
2013-08-30 01:02:00,78.6,64.0,29.88,South,180,0.0,0.0,61,0.00,,,0.00,VWS V14.01,2013-08-29 22:02:00,
2013-08-30 01:07:00,78.6,64.0,29.87,South,180,0.0,0.0,61,0.00,,,0.00,VWS V14.01,2013-08-29 22:07:00,
2013-08-30 01:12:00,78.6,64.5,29.87,SSE,158,0.0,0.0,62,0.00,,,0.00,VWS V14.01,2013-08-29 22:12:00,
2013-08-30 01:17:00,78.4,64.7,29.87,SSE,158,0.0,0.0,63,0.00,,,0.00,VWS V14.01,2013-08-29 22:17:00,
2013-08-30 01:22:00,78.4,64.7,29.87,WNW,292,0.0,0.0,63,0.00,,,0.00,VWS V14.01,2013-08-29 22:22:00,
2013-08-30 01:27:00,78.3,64.6,29.87,WNW,292,0.0,0.0,63,0.00,,,0.00,VWS V14.01,2013-08-29 22:27:00,
2013-08-30 01:32:00,78.1,64.4,29.87,WNW,292,0.0,0.0,63,0.00,,,0.00,VWS V14.01,2013-08-29 22:32:00,
2013-08-30 01:37:00,78.1,64.4,29.86,WNW,292,0.0,0.0,63,0.00,,,0.00,VWS V14.01,2013-08-29 22:37:00,
2013-08-30 01:42:00,78.1,64.4,29.86,WNW,292,0.0,0.0,63,0.00,,,0.00,VWS V14.01,2013-08-29 22:42:00,
2013-08-30 01:47:00,77.9,63.8,29.86,WNW,292,0.0,0.0,62,0.00,,,0.00,VWS V14.01,2013-08-29 22:47:00,
2013-08-30 01:52:00,77.9,63.8,29.86,WNW,292,0.0,0.0,62,0.00,,,0.00,VWS V14.01,2013-08-29 22:52:00,
2013-08-30 01:58:00,77.9,63.8,29.86,WNW,292,0.0,0.0,62,0.00,,,0.00,VWS V14.01,2013-08-29 22:58:00,
2013-08-30 02:03:00,77.7,62.7,29.86,WNW,292,0.0,0.0,60,0.00,,,0.00,VWS V14.01,2013-08-29 23:03:00,
2013-08-30 02:08:00,77.5,62.5,29.86,WNW,292,0.0,0.0,60,0.00,,,0.00,VWS V14.01,2013-08-29 23:08:00,
2013-08-30 02:13:00,77.5,62.0,29.86,WNW,292,0.0,0.0,59,0.00,,,0.00,VWS V14.01,2013-08-29 23:13:00,
2013-08-30 02:18:00,77.9,60.9,29.86,NW,315,4.6,4.6,56,0.00,,,0.00,VWS V14.01,2013-08-29 23:18:00,
2013-08-30 02:23:00,78.4,60.9,29.86,NNW,338,0.4,1.5,55,0.00,,,0.00,VWS V14.01,2013-08-29 23:23:00,
2013-08-30 02:28:00,79.0,60.9,29.86,NW,315,0.0,0.0,54,0.00,,,0.00,VWS V14.01,2013-08-29 23:28:00,
2013-08-30 02:33:00,79.0,61.4,29.86,WNW,292,0.8,0.8,55,0.00,,,0.00,VWS V14.01,2013-08-29 23:33:00,
2013-08-30 02:38:00,79.0,61.4,29.86,NW,315,4.9,4.9,55,0.00,,,0.00,VWS V14.01,2013-08-29 23:38:00,
2013-08-30 02:43:00,79.0,61.4,29.85,NW,315,2.0,2.0,55,0.00,,,0.00,VWS V14.01,2013-08-29 23:43:00,
2013-08-30 02:48:00,79.0,61.4,29.85,NNW,338,3.3,3.3,55,0.00,,,0.00,VWS V14.01,2013-08-29 23:48:00,
2013-08-30 02:53:00,79.0,61.4,29.85,North,0,5.3,5.3,55,0.00,,,0.00,VWS V14.01,2013-08-29 23:53:00,
2013-08-30 02:58:00,78.8,61.8,29.85,NW,315,4.0,4.0,56,0.00,,,0.00,VWS V14.01,2013-08-29 23:58:00,
2013-08-30 03:03:00,78.8,61.8,29.85,NW,315,4.0,4.0,56,0.00,,,0.00,VWS V14.01,2013-08-30 00:03:00,
2013-08-30 03:08:00,78.8,61.8,29.85,NW,315,4.0,4.0,56,0.00,,,0.00,VWS V14.01,2013-08-30 00:08:00,
2013-08-30 03:13:00,78.4,62.4,29.85,NNW,338,0.6,0.6,58,0.00,,,0.00,VWS V14.01,2013-08-30 00:13:00,
2013-08-30 03:18:00,78.3,62.3,29.85,NNW,338,2.9,2.9,58,0.00,,,0.00,VWS V14.01,2013-08-30 00:18:00,
2013-08-30 03:23:00,78.1,61.6,29.85,NW,315,0.0,0.0,57,0.00,,,0.00,VWS V14.01,2013-08-30 00:23:00,
2013-08-30 03:28:00,78.1,61.6,29.85,NW,315,1.1,1.1,57,0.00,,,0.00,VWS V14.01,2013-08-30 00:28:00,
2013-08-30 03:33:00,78.3,62.8,29.85,West,270,0.8,0.8,59,0.00,,,0.00,VWS V14.01,2013-08-30 00:33:00,
2013-08-30 03:38:00,78.6,61.1,29.85,NW,315,5.3,5.3,55,0.00,,,0.00,VWS V14.01,2013-08-30 00:38:00,
2013-08-30 03:43:00,79.0,58.8,29.85,West,270,5.8,5.8,50,0.00,,,0.00,VWS V14.01,2013-08-30 00:43:00,
2013-08-30 03:48:00,79.5,58.1,29.85,West,270,3.8,8.0,48,0.00,,,0.00,VWS V14.01,2013-08-30 00:48:00,
2013-08-30 03:54:00,79.7,57.7,29.85,NNW,338,4.2,6.7,47,0.00,,,0.00,VWS V14.01,2013-08-30 00:54:00,
2013-08-30 03:59:00,79.7,57.7,29.85,NW,315,7.3,7.3,47,0.00,,,0.00,VWS V14.01,2013-08-30 00:59:00,
2013-08-30 04:04:00,79.7,57.7,29.85,West,270,3.8,3.8,47,0.00,,,0.00,VWS V14.01,2013-08-30 01:04:00,
2013-08-30 04:09:00,79.7,57.7,29.85,West,270,3.8,3.8,47,0.00,,,0.00,VWS V14.01,2013-08-30 01:09:00,
2013-08-30 04:14:00,79.9,57.3,29.85,WSW,248,7.3,7.3,46,0.00,,,0.00,VWS V14.01,2013-08-30 01:14:00,
2013-08-30 04:19:00,79.9,57.3,29.84,West,270,4.4,4.4,46,0.00,,,0.00,VWS V14.01,2013-08-30 01:19:00,
2013-08-30 04:24:00,79.9,57.3,29.84,WSW,248,4.2,6.0,46,0.00,,,0.00,VWS V14.01,2013-08-30 01:24:00,
2013-08-30 04:29:00,80.1,57.4,29.84,WSW,248,3.8,3.8,46,0.00,,,0.00,VWS V14.01,2013-08-30 01:29:00,
2013-08-30 04:34:00,80.1,57.4,29.84,West,270,4.6,4.6,46,0.00,,,0.00,VWS V14.01,2013-08-30 01:34:00,
2013-08-30 04:39:00,80.1,57.4,29.84,West,270,3.8,6.9,46,0.00,,,0.00,VWS V14.01,2013-08-30 01:39:00,
2013-08-30 04:44:00,80.1,57.4,29.84,West,270,2.9,2.9,46,0.00,,,0.00,VWS V14.01,2013-08-30 01:44:00,
2013-08-30 04:49:00,80.1,57.4,29.84,WNW,292,0.0,0.0,46,0.00,,,0.00,VWS V14.01,2013-08-30 01:49:00,
2013-08-30 04:54:00,79.9,57.8,29.84,West,270,5.1,5.1,47,0.00,,,0.00,VWS V14.01,2013-08-30 01:54:00,
2013-08-30 04:59:00,79.9,57.8,29.84,WNW,292,0.0,2.6,47,0.00,,,0.00,VWS V14.01,2013-08-30 01:59:00,
2013-08-30 05:04:00,79.7,57.7,29.84,WNW,292,0.0,2.2,47,0.00,,,0.00,VWS V14.01,2013-08-30 02:04:00,
2013-08-30 05:09:00,79.7,57.7,29.84,North,0,2.9,2.9,47,0.00,,,0.00,VWS V14.01,2013-08-30 02:09:00,
2013-08-30 05:14:00,79.9,57.8,29.84,West,270,0.4,2.4,47,0.00,,,0.00,VWS V14.01,2013-08-30 02:14:00,
2013-08-30 05:19:00,79.7,57.7,29.84,West,270,1.1,1.1,47,0.00,,,0.00,VWS V14.01,2013-08-30 02:19:00,
2013-08-30 05:24:00,79.5,57.5,29.84,West,270,0.0,0.0,47,0.00,,,0.00,VWS V14.01,2013-08-30 02:24:00,
2013-08-30 05:29:00,79.0,57.6,29.84,WNW,292,2.4,3.5,48,0.00,,,0.00,VWS V14.01,2013-08-30 02:29:00,
2013-08-30 05:34:00,79.0,57.6,29.84,NNW,338,2.4,5.1,48,0.00,,,0.00,VWS V14.01,2013-08-30 02:34:00,
2013-08-30 05:39:00,79.0,57.6,29.84,NNW,338,1.3,1.3,48,0.00,,,0.00,VWS V14.01,2013-08-30 02:39:00,
2013-08-30 05:45:00,79.0,58.2,29.84,NNW,338,0.0,0.0,49,0.00,,,0.00,VWS V14.01,2013-08-30 02:45:00,
2013-08-30 05:50:00,78.8,58.0,29.84,NW,315,1.1,1.1,49,0.00,,,0.00,VWS V14.01,2013-08-30 02:50:00,
2013-08-30 05:55:00,78.8,58.0,29.84,NW,315,0.0,0.0,49,0.00,,,0.00,VWS V14.01,2013-08-30 02:55:00,
2013-08-30 06:00:00,78.6,57.8,29.84,NNW,338,2.4,2.4,49,0.00,,,0.00,VWS V14.01,2013-08-30 03:00:00,
2013-08-30 06:05:00,78.4,57.6,29.84,NNW,338,0.6,0.6,49,0.00,,,0.00,VWS V14.01,2013-08-30 03:05:00,
2013-08-30 06:10:00,78.1,56.8,29.85,NW,315,3.5,3.5,48,0.00,,,0.00,VWS V14.01,2013-08-30 03:10:00,
2013-08-30 06:15:00,78.1,56.2,29.85,NW,315,0.0,0.0,47,0.00,,,0.00,VWS V14.01,2013-08-30 03:15:00,
2013-08-30 06:20:00,78.3,55.8,29.85,NNW,338,4.6,4.6,46,0.00,,,0.00,VWS V14.01,2013-08-30 03:20:00,
2013-08-30 06:25:00,78.6,55.5,29.85,NW,315,5.8,5.8,45,0.00,,,0.00,VWS V14.01,2013-08-30 03:25:00,
2013-08-30 06:30:00,78.6,55.5,29.85,NNE,22,1.5,1.5,45,0.00,,,0.00,VWS V14.01,2013-08-30 03:30:00,
2013-08-30 06:35:00,78.6,55.5,29.85,NNE,22,1.5,1.5,45,0.00,,,0.00,VWS V14.01,2013-08-30 03:35:00,
2013-08-30 06:40:00,78.4,55.3,29.85,NE,45,4.6,4.6,45,0.00,,,0.00,VWS V14.01,2013-08-30 03:40:00,
2013-08-30 06:45:00,78.4,55.3,29.85,NNE,22,0.0,0.0,45,0.00,,,0.00,VWS V14.01,2013-08-30 03:45:00,
2013-08-30 06:50:00,78.3,55.2,29.85,NNE,22,0.0,0.0,45,0.00,,,0.00,VWS V14.01,2013-08-30 03:50:00,
2013-08-30 06:55:00,78.3,55.2,29.86,NNE,22,0.0,0.0,45,0.00,,,0.00,VWS V14.01,2013-08-30 03:55:00,
2013-08-30 07:00:00,78.3,55.2,29.86,NNW,338,0.0,0.0,45,0.00,,,0.00,VWS V14.01,2013-08-30 04:00:00,
2013-08-30 07:01:00,78.3,55.2,29.86,NNW,338,0.0,0.0,45,0.00,,,0.00,VWS V14.01,2013-08-30 04:01:00,
2013-08-30 07:02:00,78.3,55.2,29.86,NNW,338,0.0,0.0,45,0.00,,,0.00,VWS V14.01,2013-08-30 04:02:00,
2013-08-30 07:03:00,78.3,55.2,29.86,NNW,338,0.0,0.0,45,0.00,,,0.00,VWS V14.01,2013-08-30 04:03:00,
2013-08-30 07:04:00,78.4,54.7,29.86,NNW,338,0.0,0.0,44,0.00,,,0.00,VWS V14.01,2013-08-30 04:04:00,
2013-08-30 07:05:00,78.4,54.7,29.86,NNW,338,0.0,0.0,44,0.00,,,0.00,VWS V14.01,2013-08-30 04:05:00,
2013-08-30 07:10:00,78.4,54.7,29.86,NNW,338,0.0,0.4,44,0.00,,,0.00,VWS V14.01,2013-08-30 04:10:00,
2013-08-30 07:15:00,78.4,54.7,29.86,NNW,338,0.0,0.0,44,0.00,,,0.00,VWS V14.01,2013-08-30 04:15:00,
2013-08-30 07:21:00,78.8,55.0,29.86,NNW,338,2.0,2.0,44,0.00,,,0.00,VWS V14.01,2013-08-30 04:21:00,
2013-08-30 07:26:00,78.8,55.0,29.87,NE,45,0.0,0.0,44,0.00,,,0.00,VWS V14.01,2013-08-30 04:26:00,
2013-08-30 07:31:00,79.0,55.2,29.87,North,0,5.3,7.8,44,0.00,,,0.00,VWS V14.01,2013-08-30 04:31:00,
2013-08-30 07:36:00,79.0,55.8,29.86,NNW,338,8.9,8.9,45,0.00,,,0.00,VWS V14.01,2013-08-30 04:36:00,
2013-08-30 07:41:00,79.0,55.8,29.86,NNW,338,2.4,3.3,45,0.00,,,0.00,VWS V14.01,2013-08-30 04:41:00,
2013-08-30 07:46:00,79.0,56.4,29.86,NNW,338,1.1,1.1,46,0.00,,,0.00,VWS V14.01,2013-08-30 04:46:00,
2013-08-30 07:51:00,79.0,56.4,29.87,NNW,338,4.9,4.9,46,0.00,,,0.00,VWS V14.01,2013-08-30 04:51:00,
2013-08-30 07:56:00,79.2,56.6,29.87,North,0,0.4,0.8,46,0.00,,,0.00,VWS V14.01,2013-08-30 04:56:00,
2013-08-30 08:01:00,79.5,56.9,29.87,North,0,4.2,4.2,46,0.00,,,0.00,VWS V14.01,2013-08-30 05:01:00,
2013-08-30 08:06:00,79.7,57.1,29.87,NNW,338,5.5,6.7,46,0.00,,,0.00,VWS V14.01,2013-08-30 05:06:00,
2013-08-30 08:11:00,79.9,57.8,29.87,NNW,338,6.2,6.2,47,0.00,,,0.00,VWS V14.01,2013-08-30 05:11:00,
2013-08-30 08:16:00,79.7,57.7,29.87,NW,315,6.2,6.2,47,0.00,,,0.00,VWS V14.01,2013-08-30 05:16:00,
2013-08-30 08:21:00,79.7,57.7,29.87,NNW,338,4.6,4.6,47,0.00,,,0.00,VWS V14.01,2013-08-30 05:21:00,
2013-08-30 08:26:00,79.2,57.8,29.87,NW,315,6.0,6.0,48,0.00,,,0.00,VWS V14.01,2013-08-30 05:26:00,
2013-08-30 08:31:00,79.0,57.6,29.87,NW,315,0.0,0.0,48,0.00,,,0.00,VWS V14.01,2013-08-30 05:31:00,
2013-08-30 08:36:00,79.7,57.7,29.87,North,0,4.6,4.6,47,0.00,,,0.00,VWS V14.01,2013-08-30 05:36:00,
2013-08-30 08:41:00,80.2,57.5,29.87,NNW,338,0.0,0.0,46,0.00,,,0.00,VWS V14.01,2013-08-30 05:41:00,
2013-08-30 08:46:00,80.6,57.9,29.87,NNE,22,0.0,0.0,46,0.00,,,0.00,VWS V14.01,2013-08-30 05:46:00,
2013-08-30 08:51:00,81.1,57.7,29.87,NW,315,0.8,0.8,45,0.00,,,0.00,VWS V14.01,2013-08-30 05:51:00,
2013-08-30 08:56:00,81.5,57.5,29.88,NNW,338,6.4,6.4,44,0.00,,,0.00,VWS V14.01,2013-08-30 05:56:00,
2013-08-30 09:01:00,81.5,58.1,29.88,NW,315,7.1,7.1,45,0.00,,,0.00,VWS V14.01,2013-08-30 06:01:00,
2013-08-30 09:06:00,81.5,58.1,29.88,NNW,338,4.4,4.4,45,0.00,,,0.00,VWS V14.01,2013-08-30 06:06:00,
2013-08-30 09:12:00,81.9,58.5,29.88,NW,315,6.0,6.0,45,0.00,,,0.00,VWS V14.01,2013-08-30 06:12:00,
2013-08-30 09:17:00,81.9,57.8,29.87,NNW,338,5.1,8.0,44,0.00,,,0.00,VWS V14.01,2013-08-30 06:17:00,
2013-08-30 09:22:00,82.0,56.6,29.88,North,0,9.1,9.8,42,0.00,,,0.00,VWS V14.01,2013-08-30 06:22:00,
2013-08-30 09:27:00,82.2,57.5,29.87,North,0,2.6,5.3,43,0.00,,,0.00,VWS V14.01,2013-08-30 06:27:00,
2013-08-30 09:32:00,82.4,57.0,29.88,NW,315,2.6,4.6,42,0.00,,,0.00,VWS V14.01,2013-08-30 06:32:00,
2013-08-30 09:37:00,82.6,57.2,29.88,North,0,4.6,6.2,42,0.00,,,0.00,VWS V14.01,2013-08-30 06:37:00,
2013-08-30 09:42:00,82.9,56.8,29.88,NNW,338,6.9,8.9,41,0.00,,,0.00,VWS V14.01,2013-08-30 06:42:00,
2013-08-30 09:47:00,83.1,57.0,29.88,NNW,338,2.9,2.9,41,0.00,,,0.00,VWS V14.01,2013-08-30 06:47:00,
2013-08-30 09:52:00,83.5,57.3,29.88,NNW,338,3.1,5.8,41,0.00,,,0.00,VWS V14.01,2013-08-30 06:52:00,
2013-08-30 09:57:00,83.7,57.5,29.88,North,0,0.0,0.0,41,0.00,,,0.00,VWS V14.01,2013-08-30 06:57:00,
2013-08-30 10:02:00,84.0,57.1,29.88,NNW,338,5.1,7.1,40,0.00,,,0.00,VWS V14.01,2013-08-30 07:02:00,
2013-08-30 10:07:00,84.2,57.2,29.88,NW,315,8.7,8.7,40,0.00,,,0.00,VWS V14.01,2013-08-30 07:07:00,
2013-08-30 10:12:00,84.2,56.5,29.88,NNW,338,5.5,5.5,39,0.00,,,0.00,VWS V14.01,2013-08-30 07:12:00,
2013-08-30 10:17:00,84.6,56.9,29.88,NNW,338,3.3,3.3,39,0.00,,,0.00,VWS V14.01,2013-08-30 07:17:00,
2013-08-30 10:22:00,85.1,57.3,29.88,NW,315,4.2,6.0,39,0.00,,,0.00,VWS V14.01,2013-08-30 07:22:00,
2013-08-30 10:27:00,84.9,57.2,29.88,NW,315,6.9,7.8,39,0.00,,,0.00,VWS V14.01,2013-08-30 07:27:00,
2013-08-30 10:32:00,84.9,57.2,29.88,NW,315,9.6,9.6,39,0.00,,,0.00,VWS V14.01,2013-08-30 07:32:00,
2013-08-30 10:37:00,85.1,56.6,29.88,North,0,5.3,6.4,38,0.00,,,0.00,VWS V14.01,2013-08-30 07:37:00,
2013-08-30 10:43:00,85.1,57.3,29.88,NW,315,1.5,1.5,39,0.00,,,0.00,VWS V14.01,2013-08-30 07:43:00,
2013-08-30 10:48:00,85.6,56.3,29.88,NNW,338,6.7,6.7,37,0.00,,,0.00,VWS V14.01,2013-08-30 07:48:00,
2013-08-30 10:53:00,85.6,57.1,29.88,North,0,5.8,5.8,38,0.00,,,0.00,VWS V14.01,2013-08-30 07:53:00,
2013-08-30 10:58:00,86.0,57.4,29.88,North,0,6.4,6.4,38,0.00,,,0.00,VWS V14.01,2013-08-30 07:58:00,
2013-08-30 11:03:00,86.5,57.9,29.87,NE,45,6.0,6.0,38,0.00,,,0.00,VWS V14.01,2013-08-30 08:03:00,
2013-08-30 11:08:00,86.5,57.9,29.88,NNW,338,6.0,6.0,38,0.00,,,0.00,VWS V14.01,2013-08-30 08:08:00,
2013-08-30 11:13:00,86.2,58.3,29.88,NNE,22,2.0,2.0,39,0.00,,,0.00,VWS V14.01,2013-08-30 08:13:00,
2013-08-30 11:18:00,86.9,58.2,29.88,NE,45,8.2,8.2,38,0.00,,,0.00,VWS V14.01,2013-08-30 08:18:00,
2013-08-30 11:23:00,86.9,58.2,29.88,NE,45,5.3,5.3,38,0.00,,,0.00,VWS V14.01,2013-08-30 08:23:00,
2013-08-30 11:28:00,86.9,56.7,29.88,NE,45,4.6,4.6,36,0.00,,,0.00,VWS V14.01,2013-08-30 08:28:00,
2013-08-30 11:33:00,86.9,57.5,29.88,NNE,22,4.0,4.0,37,0.00,,,0.00,VWS V14.01,2013-08-30 08:33:00,
2013-08-30 11:38:00,86.9,58.2,29.88,North,0,4.2,4.9,38,0.00,,,0.00,VWS V14.01,2013-08-30 08:38:00,
2013-08-30 11:43:00,86.9,57.5,29.88,NNE,22,4.0,5.8,37,0.00,,,0.00,VWS V14.01,2013-08-30 08:43:00,
2013-08-30 11:48:00,87.4,58.7,29.87,NNE,22,5.5,5.5,38,0.00,,,0.00,VWS V14.01,2013-08-30 08:48:00,
2013-08-30 11:53:00,87.4,57.9,29.87,ENE,68,9.8,9.8,37,0.00,,,0.00,VWS V14.01,2013-08-30 08:53:00,
2013-08-30 11:58:00,87.3,57.8,29.88,NNE,22,0.0,0.0,37,0.00,,,0.00,VWS V14.01,2013-08-30 08:58:00,
2013-08-30 12:03:00,87.4,57.9,29.87,NE,45,0.8,0.8,37,0.00,,,0.00,VWS V14.01,2013-08-30 09:03:00,
2013-08-30 12:08:00,87.8,58.3,29.87,NW,315,6.7,6.7,37,0.00,,,0.00,VWS V14.01,2013-08-30 09:08:00,
2013-08-30 12:13:00,87.8,57.5,29.87,NNE,22,0.4,0.4,36,0.00,,,0.00,VWS V14.01,2013-08-30 09:13:00,
2013-08-30 12:18:00,88.5,58.1,29.87,NE,45,0.6,0.6,36,0.00,,,0.00,VWS V14.01,2013-08-30 09:18:00,
2013-08-30 12:23:00,88.7,58.3,29.87,NE,45,5.1,5.1,36,0.00,,,0.00,VWS V14.01,2013-08-30 09:23:00,
2013-08-30 12:28:00,88.3,58.0,29.87,NNE,22,3.5,3.5,36,0.00,,,0.00,VWS V14.01,2013-08-30 09:28:00,
2013-08-30 12:34:00,88.0,58.5,29.87,NNW,338,2.0,2.0,37,0.00,,,0.00,VWS V14.01,2013-08-30 09:34:00,
2013-08-30 12:39:00,88.0,57.7,29.87,NNW,338,0.0,3.8,36,0.00,,,0.00,VWS V14.01,2013-08-30 09:39:00,
2013-08-30 12:44:00,88.3,58.0,29.87,NNW,338,0.8,0.8,36,0.00,,,0.00,VWS V14.01,2013-08-30 09:44:00,
2013-08-30 12:49:00,88.9,59.2,29.87,NNE,22,4.9,4.9,37,0.00,,,0.00,VWS V14.01,2013-08-30 09:49:00,
2013-08-30 12:54:00,88.7,59.1,29.87,NNE,22,5.8,8.5,37,0.00,,,0.00,VWS V14.01,2013-08-30 09:54:00,
2013-08-30 12:59:00,88.5,59.6,29.86,NE,45,8.9,8.9,38,0.00,,,0.00,VWS V14.01,2013-08-30 09:59:00,
2013-08-30 13:04:00,88.0,59.2,29.86,NE,45,0.0,0.0,38,0.00,,,0.00,VWS V14.01,2013-08-30 10:04:00,
2013-08-30 13:09:00,87.3,58.6,29.86,NNE,22,3.8,7.6,38,0.00,,,0.00,VWS V14.01,2013-08-30 10:09:00,
2013-08-30 13:14:00,86.9,58.2,29.86,NE,45,1.7,6.0,38,0.00,,,0.00,VWS V14.01,2013-08-30 10:14:00,
2013-08-30 13:19:00,86.7,58.0,29.86,ENE,68,3.3,3.3,38,0.00,,,0.00,VWS V14.01,2013-08-30 10:19:00,
2013-08-30 13:24:00,87.1,63.8,29.86,NE,45,0.2,6.7,46,0.00,,,0.00,VWS V14.01,2013-08-30 10:24:00,
2013-08-30 13:29:00,86.0,64.6,29.86,NE,45,6.0,6.0,49,0.00,,,0.00,VWS V14.01,2013-08-30 10:29:00,
2013-08-30 13:34:00,85.3,66.2,29.86,NE,45,4.6,4.6,53,0.00,,,0.00,VWS V14.01,2013-08-30 10:34:00,
2013-08-30 13:39:00,86.0,66.9,29.87,East,90,2.4,3.1,53,0.00,,,0.00,VWS V14.01,2013-08-30 10:39:00,
2013-08-30 13:44:00,86.2,66.5,29.86,NE,45,4.2,4.2,52,0.00,,,0.00,VWS V14.01,2013-08-30 10:44:00,
2013-08-30 13:49:00,85.3,67.8,29.86,ENE,68,0.2,0.2,56,0.00,,,0.00,VWS V14.01,2013-08-30 10:49:00,
2013-08-30 13:54:00,85.6,67.0,29.87,ESE,112,2.9,2.9,54,0.00,,,0.00,VWS V14.01,2013-08-30 10:54:00,
2013-08-30 13:59:00,85.1,68.1,29.86,East,90,0.0,0.0,57,0.00,,,0.00,VWS V14.01,2013-08-30 10:59:00,
2013-08-30 14:04:00,84.4,68.0,29.86,ENE,68,0.8,0.8,58,0.00,,,0.00,VWS V14.01,2013-08-30 11:04:00,
2013-08-30 14:09:00,85.1,60.1,29.87,NNW,338,3.8,3.8,43,0.00,,,0.00,VWS V14.01,2013-08-30 11:09:00,
2013-08-30 14:14:00,85.6,61.8,29.87,ENE,68,1.5,5.5,45,0.00,,,0.00,VWS V14.01,2013-08-30 11:14:00,
2013-08-30 14:19:00,85.6,65.9,29.87,ENE,68,3.8,3.8,52,0.00,,,0.00,VWS V14.01,2013-08-30 11:19:00,
2013-08-30 14:24:00,85.5,66.4,29.87,East,90,0.0,0.0,53,0.00,,,0.00,VWS V14.01,2013-08-30 11:24:00,
2013-08-30 14:30:00,85.5,66.9,29.87,East,90,0.0,0.0,54,0.00,,,0.00,VWS V14.01,2013-08-30 11:30:00,
2013-08-30 14:35:00,85.3,65.7,29.87,West,270,6.7,6.7,52,0.00,,,0.00,VWS V14.01,2013-08-30 11:35:00,
2013-08-30 14:40:00,85.3,62.2,29.87,North,0,0.0,0.0,46,0.00,,,0.00,VWS V14.01,2013-08-30 11:40:00,
2013-08-30 14:45:00,85.6,65.9,29.87,SE,135,0.0,0.0,52,0.00,,,0.00,VWS V14.01,2013-08-30 11:45:00,
2013-08-30 14:50:00,85.1,66.0,29.87,SE,135,1.3,1.3,53,0.00,,,0.00,VWS V14.01,2013-08-30 11:50:00,
2013-08-30 14:55:00,83.7,65.8,29.87,SSW,202,0.0,2.9,55,0.00,,,0.00,VWS V14.01,2013-08-30 11:55:00,
2013-08-30 15:00:00,83.7,63.1,29.86,NNE,22,0.0,0.0,50,0.00,,,0.00,VWS V14.01,2013-08-30 12:00:00,
2013-08-30 15:05:00,84.7,62.2,29.86,NE,45,0.0,0.0,47,0.00,,,0.00,VWS V14.01,2013-08-30 12:05:00,
2013-08-30 15:10:00,85.8,64.4,29.87,SSW,202,2.9,2.9,49,0.00,,,0.00,VWS V14.01,2013-08-30 12:10:00,
2013-08-30 15:15:00,85.6,65.4,29.86,WNW,292,0.0,3.5,51,0.00,,,0.00,VWS V14.01,2013-08-30 12:15:00,
2013-08-30 15:20:00,85.3,65.7,29.86,NNW,338,7.1,7.1,52,0.00,,,0.00,VWS V14.01,2013-08-30 12:20:00,
2013-08-30 15:25:00,85.3,66.2,29.86,NNW,338,0.0,3.1,53,0.00,,,0.00,VWS V14.01,2013-08-30 12:25:00,
2013-08-30 15:30:00,85.6,65.9,29.86,ESE,112,0.0,0.0,52,0.00,,,0.00,VWS V14.01,2013-08-30 12:30:00,
2013-08-30 15:35:00,85.8,66.7,29.86,ESE,112,0.0,0.0,53,0.00,,,0.00,VWS V14.01,2013-08-30 12:35:00,
2013-08-30 15:40:00,86.0,67.9,29.86,ESE,112,0.4,0.4,55,0.00,,,0.00,VWS V14.01,2013-08-30 12:40:00,
2013-08-30 15:45:00,85.6,68.1,29.86,East,90,3.8,3.8,56,0.00,,,0.00,VWS V14.01,2013-08-30 12:45:00,
2013-08-30 15:50:00,85.6,67.6,29.86,ESE,112,1.7,1.7,55,0.00,,,0.00,VWS V14.01,2013-08-30 12:50:00,
2013-08-30 15:55:00,85.6,68.1,29.86,ENE,68,3.3,7.1,56,0.00,,,0.00,VWS V14.01,2013-08-30 12:55:00,
2013-08-30 16:00:00,85.6,68.1,29.86,East,90,5.3,5.5,56,0.00,,,0.00,VWS V14.01,2013-08-30 13:00:00,
2013-08-30 16:05:00,85.5,68.0,29.86,SE,135,3.3,3.3,56,0.00,,,0.00,VWS V14.01,2013-08-30 13:05:00,
2013-08-30 16:10:00,85.3,67.3,29.86,NNE,22,2.0,2.0,55,0.00,,,0.00,VWS V14.01,2013-08-30 13:10:00,
2013-08-30 16:15:00,85.3,66.8,29.86,NE,45,5.3,5.3,54,0.00,,,0.00,VWS V14.01,2013-08-30 13:15:00,
2013-08-30 16:21:00,85.1,66.6,29.86,ENE,68,1.3,1.3,54,0.00,,,0.00,VWS V14.01,2013-08-30 13:21:00,
2013-08-30 16:26:00,85.1,66.6,29.86,NE,45,0.0,2.9,54,0.00,,,0.00,VWS V14.01,2013-08-30 13:26:00,
2013-08-30 16:31:00,84.9,66.4,29.86,East,90,5.5,5.5,54,0.00,,,0.00,VWS V14.01,2013-08-30 13:31:00,
2013-08-30 16:36:00,85.1,66.0,29.86,NNE,22,3.8,3.8,53,0.00,,,0.00,VWS V14.01,2013-08-30 13:36:00,
2013-08-30 16:41:00,85.3,65.7,29.86,NE,45,3.5,3.5,52,0.00,,,0.00,VWS V14.01,2013-08-30 13:41:00,
2013-08-30 16:46:00,84.9,65.8,29.86,East,90,1.3,1.3,53,0.00,,,0.00,VWS V14.01,2013-08-30 13:46:00,
2013-08-30 16:51:00,84.2,66.3,29.86,NE,45,3.1,3.1,55,0.00,,,0.00,VWS V14.01,2013-08-30 13:51:00,
2013-08-30 16:56:00,84.0,66.6,29.86,East,90,0.0,0.0,56,0.00,,,0.00,VWS V14.01,2013-08-30 13:56:00,
2013-08-30 17:01:00,84.2,66.3,29.86,ESE,112,4.6,4.6,55,0.00,,,0.00,VWS V14.01,2013-08-30 14:01:00,
2013-08-30 17:06:00,84.2,66.8,29.86,East,90,5.3,5.3,56,0.00,,,0.00,VWS V14.01,2013-08-30 14:06:00,
2013-08-30 17:11:00,84.2,66.8,29.86,East,90,1.1,1.1,56,0.00,,,0.00,VWS V14.01,2013-08-30 14:11:00,
2013-08-30 17:16:00,83.5,67.1,29.86,SE,135,0.4,0.4,58,0.00,,,0.00,VWS V14.01,2013-08-30 14:16:00,
2013-08-30 17:21:00,83.3,67.4,29.87,East,90,3.8,3.8,59,0.00,,,0.00,VWS V14.01,2013-08-30 14:21:00,
2013-08-30 17:26:00,83.3,67.4,29.87,ESE,112,6.2,6.2,59,0.00,,,0.00,VWS V14.01,2013-08-30 14:26:00,
2013-08-30 17:31:00,82.9,67.1,29.87,NE,45,1.1,1.1,59,0.00,,,0.00,VWS V14.01,2013-08-30 14:31:00,
2013-08-30 17:36:00,82.6,66.8,29.87,ENE,68,0.0,2.4,59,0.00,,,0.00,VWS V14.01,2013-08-30 14:36:00,
2013-08-30 17:41:00,82.4,66.6,29.87,East,90,5.1,6.4,59,0.00,,,0.00,VWS V14.01,2013-08-30 14:41:00,
2013-08-30 17:46:00,81.7,66.4,29.87,East,90,5.1,5.1,60,0.00,,,0.00,VWS V14.01,2013-08-30 14:46:00,
2013-08-30 17:51:00,81.5,66.7,29.87,ESE,112,5.3,5.3,61,0.00,,,0.00,VWS V14.01,2013-08-30 14:51:00,
2013-08-30 17:56:00,80.8,66.5,29.88,SE,135,3.3,3.3,62,0.00,,,0.00,VWS V14.01,2013-08-30 14:56:00,
2013-08-30 18:01:00,80.6,66.8,29.88,ESE,112,6.2,6.2,63,0.00,,,0.00,VWS V14.01,2013-08-30 15:01:00,
2013-08-30 18:06:00,80.2,66.9,29.88,SE,135,0.8,0.8,64,0.00,,,0.00,VWS V14.01,2013-08-30 15:06:00,
2013-08-30 18:12:00,80.1,67.2,29.88,ESE,112,6.4,6.4,65,0.00,,,0.00,VWS V14.01,2013-08-30 15:12:00,
2013-08-30 18:17:00,79.9,67.1,29.88,ESE,112,2.6,2.6,65,0.00,,,0.00,VWS V14.01,2013-08-30 15:17:00,
2013-08-30 18:22:00,79.7,66.9,29.88,NE,45,0.0,0.0,65,0.00,,,0.00,VWS V14.01,2013-08-30 15:22:00,
2013-08-30 18:27:00,79.9,66.6,29.88,East,90,0.0,0.0,64,0.00,,,0.00,VWS V14.01,2013-08-30 15:27:00,
2013-08-30 18:32:00,79.9,66.6,29.89,ESE,112,2.2,2.2,64,0.00,,,0.00,VWS V14.01,2013-08-30 15:32:00,
2013-08-30 18:37:00,79.9,66.6,29.89,SE,135,1.3,1.3,64,0.00,,,0.00,VWS V14.01,2013-08-30 15:37:00,
2013-08-30 18:42:00,79.9,66.2,29.89,ESE,112,0.0,0.0,63,0.00,,,0.00,VWS V14.01,2013-08-30 15:42:00,
2013-08-30 18:47:00,79.7,66.4,29.89,East,90,4.0,4.0,64,0.00,,,0.00,VWS V14.01,2013-08-30 15:47:00,
2013-08-30 18:52:00,79.3,65.6,29.89,East,90,1.1,1.1,63,0.00,,,0.00,VWS V14.01,2013-08-30 15:52:00,
2013-08-30 18:57:00,79.0,65.8,29.89,ENE,68,0.0,3.1,64,0.00,,,0.00,VWS V14.01,2013-08-30 15:57:00,
2013-08-30 19:02:00,78.8,65.6,29.89,SE,135,0.0,1.1,64,0.00,,,0.00,VWS V14.01,2013-08-30 16:02:00,
2013-08-30 19:07:00,78.8,66.0,29.89,ESE,112,1.7,1.7,65,0.00,,,0.00,VWS V14.01,2013-08-30 16:07:00,
2013-08-30 19:12:00,78.4,65.6,29.89,SE,135,4.9,4.9,65,0.00,,,0.00,VWS V14.01,2013-08-30 16:12:00,
2013-08-30 19:17:00,77.9,66.0,29.89,SSE,158,0.0,0.0,67,0.00,,,0.00,VWS V14.01,2013-08-30 16:17:00,
2013-08-30 19:22:00,77.9,66.0,29.89,SSE,158,0.4,0.4,67,0.00,,,0.00,VWS V14.01,2013-08-30 16:22:00,
2013-08-30 19:27:00,77.5,66.1,29.89,SSE,158,0.0,0.0,68,0.00,,,0.00,VWS V14.01,2013-08-30 16:27:00,
2013-08-30 19:32:00,77.2,66.2,29.89,SSE,158,0.0,0.0,69,0.00,,,0.00,VWS V14.01,2013-08-30 16:32:00,
2013-08-30 19:37:00,77.2,66.2,29.89,SE,135,0.0,0.0,69,0.00,,,0.00,VWS V14.01,2013-08-30 16:37:00,
2013-08-30 19:42:00,77.0,66.0,29.89,SE,135,0.0,0.0,69,0.00,,,0.00,VWS V14.01,2013-08-30 16:42:00,
2013-08-30 19:48:00,76.6,65.6,29.89,ESE,112,0.0,0.0,69,0.00,,,0.00,VWS V14.01,2013-08-30 16:48:00,
2013-08-30 19:53:00,76.6,66.1,29.90,SE,135,1.5,1.5,70,0.00,,,0.00,VWS V14.01,2013-08-30 16:53:00,
2013-08-30 19:58:00,76.5,66.0,29.90,SSE,158,0.0,0.0,70,0.00,,,0.00,VWS V14.01,2013-08-30 16:58:00,
2013-08-30 20:03:00,76.5,66.0,29.91,ESE,112,0.0,0.0,70,0.00,,,0.00,VWS V14.01,2013-08-30 17:03:00,
2013-08-30 20:08:00,76.3,66.2,29.91,SE,135,0.0,0.0,71,0.00,,,0.00,VWS V14.01,2013-08-30 17:08:00,
2013-08-30 20:13:00,76.3,66.2,29.91,SSE,158,0.0,0.0,71,0.00,,,0.00,VWS V14.01,2013-08-30 17:13:00,
2013-08-30 20:18:00,76.1,66.0,29.91,SSE,158,0.0,0.0,71,0.00,,,0.00,VWS V14.01,2013-08-30 17:18:00,
2013-08-30 20:23:00,76.1,66.0,29.91,SSE,158,0.0,0.0,71,0.00,,,0.00,VWS V14.01,2013-08-30 17:23:00,
2013-08-30 20:28:00,76.1,66.0,29.91,SSE,158,0.0,0.0,71,0.00,,,0.00,VWS V14.01,2013-08-30 17:28:00,
2013-08-30 20:33:00,75.9,66.2,29.92,SSE,158,0.0,0.0,72,0.00,,,0.00,VWS V14.01,2013-08-30 17:33:00,
2013-08-30 20:38:00,75.9,66.2,29.92,SSE,158,0.0,0.0,72,0.00,,,0.00,VWS V14.01,2013-08-30 17:38:00,
2013-08-30 20:43:00,75.7,66.0,29.92,SSE,158,0.8,0.8,72,0.00,,,0.00,VWS V14.01,2013-08-30 17:43:00,
2013-08-30 20:48:00,75.7,66.0,29.92,SSE,158,0.0,0.0,72,0.00,,,0.00,VWS V14.01,2013-08-30 17:48:00,
2013-08-30 20:53:00,75.7,66.0,29.92,SSE,158,0.0,0.0,72,0.00,,,0.00,VWS V14.01,2013-08-30 17:53:00,
2013-08-30 20:58:00,75.6,65.9,29.92,SSE,158,0.0,0.0,72,0.00,,,0.00,VWS V14.01,2013-08-30 17:58:00,
2013-08-30 21:03:00,75.4,65.7,29.92,SSE,158,0.0,0.0,72,0.00,,,0.00,VWS V14.01,2013-08-30 18:03:00,
2013-08-30 21:08:00,75.4,65.7,29.93,SSE,158,0.0,0.0,72,0.00,,,0.00,VWS V14.01,2013-08-30 18:08:00,
2013-08-30 21:13:00,75.4,65.7,29.93,SSE,158,0.0,0.0,72,0.00,,,0.00,VWS V14.01,2013-08-30 18:13:00,
2013-08-30 21:18:00,75.4,65.7,29.93,SSE,158,0.0,0.0,72,0.00,,,0.00,VWS V14.01,2013-08-30 18:18:00,
2013-08-30 21:23:00,75.4,65.7,29.93,SSE,158,0.0,0.0,72,0.00,,,0.00,VWS V14.01,2013-08-30 18:23:00,
2013-08-30 21:28:00,75.4,65.7,29.93,SSE,158,0.0,0.0,72,0.00,,,0.00,VWS V14.01,2013-08-30 18:28:00,
2013-08-30 21:33:00,75.2,65.5,29.93,SSE,158,0.0,0.0,72,0.00,,,0.00,VWS V14.01,2013-08-30 18:33:00,
2013-08-30 21:39:00,75.2,65.5,29.93,SSE,158,0.0,0.0,72,0.00,,,0.00,VWS V14.01,2013-08-30 18:39:00,
2013-08-30 21:44:00,75.2,65.9,29.93,SSE,158,0.0,0.0,73,0.00,,,0.00,VWS V14.01,2013-08-30 18:44:00,
2013-08-30 21:49:00,75.2,65.9,29.94,SSE,158,0.0,0.0,73,0.00,,,0.00,VWS V14.01,2013-08-30 18:49:00,
2013-08-30 21:54:00,75.2,66.3,29.94,SSE,158,0.0,0.0,74,0.00,,,0.00,VWS V14.01,2013-08-30 18:54:00,
2013-08-30 21:59:00,75.0,66.1,29.94,SSE,158,0.0,0.0,74,0.00,,,0.00,VWS V14.01,2013-08-30 18:59:00,
2013-08-30 22:04:00,75.0,66.1,29.94,SSE,158,0.0,0.0,74,0.00,,,0.00,VWS V14.01,2013-08-30 19:04:00,
2013-08-30 22:09:00,74.8,66.3,29.94,SSE,158,0.0,0.0,75,0.00,,,0.00,VWS V14.01,2013-08-30 19:09:00,
2013-08-30 22:14:00,74.8,66.3,29.94,SSE,158,0.0,0.0,75,0.00,,,0.00,VWS V14.01,2013-08-30 19:14:00,
2013-08-30 22:19:00,74.8,66.3,29.94,SSE,158,0.0,0.0,75,0.00,,,0.00,VWS V14.01,2013-08-30 19:19:00,
2013-08-30 22:24:00,74.7,66.2,29.94,SSE,158,0.0,0.0,75,0.00,,,0.00,VWS V14.01,2013-08-30 19:24:00,
2013-08-30 22:29:00,74.7,66.2,29.94,SSE,158,0.0,0.0,75,0.00,,,0.00,VWS V14.01,2013-08-30 19:29:00,
2013-08-30 22:34:00,74.5,66.0,29.94,SSE,158,0.8,0.8,75,0.00,,,0.00,VWS V14.01,2013-08-30 19:34:00,
2013-08-30 22:39:00,74.5,66.0,29.94,SSE,158,0.0,0.0,75,0.00,,,0.00,VWS V14.01,2013-08-30 19:39:00,
2013-08-30 22:44:00,74.3,65.8,29.94,SSE,158,0.0,0.0,75,0.00,,,0.00,VWS V14.01,2013-08-30 19:44:00,
2013-08-30 22:49:00,74.1,66.0,29.94,SSE,158,0.0,0.0,76,0.00,,,0.00,VWS V14.01,2013-08-30 19:49:00,
2013-08-30 22:54:00,74.1,66.0,29.94,SSE,158,0.0,0.0,76,0.00,,,0.00,VWS V14.01,2013-08-30 19:54:00,
2013-08-30 22:59:00,74.1,66.0,29.94,SSE,158,0.0,0.0,76,0.00,,,0.00,VWS V14.01,2013-08-30 19:59:00,
2013-08-30 23:04:00,74.1,66.0,29.93,SSE,158,0.0,0.0,76,0.00,,,0.00,VWS V14.01,2013-08-30 20:04:00,
2013-08-30 23:09:00,73.9,65.8,29.93,SSE,158,0.0,0.0,76,0.00,,,0.00,VWS V14.01,2013-08-30 20:09:00,
2013-08-30 23:14:00,73.9,65.8,29.93,SSE,158,0.0,0.0,76,0.00,,,0.00,VWS V14.01,2013-08-30 20:14:00,
2013-08-30 23:19:00,73.9,65.8,29.93,SSE,158,0.0,0.0,76,0.00,,,0.00,VWS V14.01,2013-08-30 20:19:00,
2013-08-30 23:24:00,73.8,65.7,29.93,SSE,158,0.0,0.0,76,0.00,,,0.00,VWS V14.01,2013-08-30 20:24:00,
2013-08-30 23:29:00,73.6,65.5,29.93,SSE,158,0.0,0.0,76,0.00,,,0.00,VWS V14.01,2013-08-30 20:29:00,
2013-08-30 23:35:00,73.6,65.5,29.93,SSE,158,0.0,0.0,76,0.00,,,0.00,VWS V14.01,2013-08-30 20:35:00,
2013-08-30 23:40:00,73.6,65.5,29.93,SSE,158,0.0,0.0,76,0.00,,,0.00,VWS V14.01,2013-08-30 20:40:00,
2013-08-30 23:45:00,73.6,65.5,29.93,SSE,158,0.0,0.0,76,0.00,,,0.00,VWS V14.01,2013-08-30 20:45:00,
2013-08-30 23:50:00,73.6,65.5,29.92,SSE,158,0.0,0.0,76,0.00,,,0.00,VWS V14.01,2013-08-30 20:50:00,
2013-08-30 23:55:00,73.4,65.3,29.92,SSE,158,0.0,0.0,76,0.00,,,0.00,VWS V14.01,2013-08-30 20:55:00,